sensor_id;sensor_type;location;lat;lon;timestamp;pressure;altitude;pressure_sealevel;temperature;humidity
53960;BME280;39866;48.638;-2.020;2022-07-03T00:01:15;101935.84;;;19.31;61.12
53960;BME280;39866;48.638;-2.020;2022-07-03T00:03:41;101936.09;;;19.25;61.38
53960;BME280;39866;48.638;-2.020;2022-07-03T00:06:06;101934.56;;;19.19;61.79
53960;BME280;39866;48.638;-2.020;2022-07-03T00:08:31;101939.38;;;19.13;61.54
53960;BME280;39866;48.638;-2.020;2022-07-03T00:10:57;101936.78;;;19.10;61.33
53960;BME280;39866;48.638;-2.020;2022-07-03T00:13:22;101924.59;;;19.01;61.20
53960;BME280;39866;48.638;-2.020;2022-07-03T00:15:47;101922.09;;;18.96;60.79
53960;BME280;39866;48.638;-2.020;2022-07-03T00:18:13;101926.50;;;18.99;61.60
53960;BME280;39866;48.638;-2.020;2022-07-03T00:20:44;101921.09;;;18.99;61.84
53960;BME280;39866;48.638;-2.020;2022-07-03T00:23:13;101929.19;;;18.99;62.20
53960;BME280;39866;48.638;-2.020;2022-07-03T00:25:41;101928.50;;;18.94;62.37
53960;BME280;39866;48.638;-2.020;2022-07-03T00:28:08;101926.91;;;18.90;62.00
53960;BME280;39866;48.638;-2.020;2022-07-03T00:30:34;101932.44;;;18.87;61.48
53960;BME280;39866;48.638;-2.020;2022-07-03T00:33:01;101930.53;;;18.89;61.64
53960;BME280;39866;48.638;-2.020;2022-07-03T00:35:28;101924.56;;;18.82;62.22
53960;BME280;39866;48.638;-2.020;2022-07-03T00:37:55;101930.63;;;18.87;62.04
53960;BME280;39866;48.638;-2.020;2022-07-03T00:40:20;101928.81;;;18.88;61.99
53960;BME280;39866;48.638;-2.020;2022-07-03T00:42:49;101928.81;;;18.88;61.81
53960;BME280;39866;48.638;-2.020;2022-07-03T00:45:19;101926.97;;;18.88;62.16
53960;BME280;39866;48.638;-2.020;2022-07-03T00:47:45;101919.09;;;18.84;61.90
53960;BME280;39866;48.638;-2.020;2022-07-03T00:50:10;101927.31;;;18.80;62.33
53960;BME280;39866;48.638;-2.020;2022-07-03T00:52:36;101930.97;;;18.79;62.31
53960;BME280;39866;48.638;-2.020;2022-07-03T00:55:07;101927.31;;;18.80;61.99
53960;BME280;39866;48.638;-2.020;2022-07-03T00:57:33;101923.88;;;18.77;62.18
53960;BME280;39866;48.638;-2.020;2022-07-03T01:00:00;101916.72;;;18.76;61.83
53960;BME280;39866;48.638;-2.020;2022-07-03T01:05:42;101914.91;;;18.76;61.82
53960;BME280;39866;48.638;-2.020;2022-07-03T01:13:17;101906.81;;;18.76;62.00
53960;BME280;39866;48.638;-2.020;2022-07-03T01:15:54;101919.34;;;18.77;61.57
53960;BME280;39866;48.638;-2.020;2022-07-03T01:21:39;101919.63;;;18.71;60.74
53960;BME280;39866;48.638;-2.020;2022-07-03T01:27:04;101926.06;;;18.67;61.71
53960;BME280;39866;48.638;-2.020;2022-07-03T01:29:39;101927.81;;;18.68;62.07
53960;BME280;39866;48.638;-2.020;2022-07-03T01:32:10;101924.44;;;18.63;62.08
53960;BME280;39866;48.638;-2.020;2022-07-03T01:34:43;101930.81;;;18.62;61.44
53960;BME280;39866;48.638;-2.020;2022-07-03T01:37:10;101928.91;;;18.64;61.53
53960;BME280;39866;48.638;-2.020;2022-07-03T01:39:35;101926.19;;;18.64;62.36
53960;BME280;39866;48.638;-2.020;2022-07-03T01:42:02;101929.66;;;18.68;61.78
53960;BME280;39866;48.638;-2.020;2022-07-03T01:44:28;101934.16;;;18.67;62.29
53960;BME280;39866;48.638;-2.020;2022-07-03T01:46:57;101930.59;;;18.67;61.95
53960;BME280;39866;48.638;-2.020;2022-07-03T01:49:26;101927.22;;;18.62;62.67
53960;BME280;39866;48.638;-2.020;2022-07-03T01:51:53;101940.75;;;18.60;62.43
53960;BME280;39866;48.638;-2.020;2022-07-03T01:54:20;101929.50;;;18.50;62.92
53960;BME280;39866;48.638;-2.020;2022-07-03T01:56:49;101926.84;;;18.49;62.43
53960;BME280;39866;48.638;-2.020;2022-07-03T01:59:14;101934.28;;;18.44;62.99
53960;BME280;39866;48.638;-2.020;2022-07-03T02:04:27;101922.81;;;18.39;62.85
53960;BME280;39866;48.638;-2.020;2022-07-03T02:10:20;101933.41;;;18.43;63.05
53960;BME280;39866;48.638;-2.020;2022-07-03T02:12:52;101921.88;;;18.40;62.92
53960;BME280;39866;48.638;-2.020;2022-07-03T02:15:38;101919.28;;;18.37;62.92
53960;BME280;39866;48.638;-2.020;2022-07-03T02:18:33;101918.72;;;18.28;62.61
53960;BME280;39866;48.638;-2.020;2022-07-03T02:23:31;101912.06;;;18.17;63.16
53960;BME280;39866;48.638;-2.020;2022-07-03T02:26:00;101915.75;;;18.14;63.08
53960;BME280;39866;48.638;-2.020;2022-07-03T02:31:21;101916.94;;;18.07;63.02
53960;BME280;39866;48.638;-2.020;2022-07-03T02:33:50;101924.22;;;18.05;63.33
53960;BME280;39866;48.638;-2.020;2022-07-03T02:36:21;101919.19;;;17.96;63.47
53960;BME280;39866;48.638;-2.020;2022-07-03T02:38:52;101926.59;;;17.91;63.62
53960;BME280;39866;48.638;-2.020;2022-07-03T02:41:25;101917.91;;;17.84;63.41
53960;BME280;39866;48.638;-2.020;2022-07-03T02:44:01;101911.81;;;17.79;63.78
53960;BME280;39866;48.638;-2.020;2022-07-03T02:47:18;101917.25;;;17.77;63.65
53960;BME280;39866;48.638;-2.020;2022-07-03T02:51:48;101923.53;;;17.78;64.64
53960;BME280;39866;48.638;-2.020;2022-07-03T02:54:17;101922.66;;;17.77;63.88
53960;BME280;39866;48.638;-2.020;2022-07-03T02:57:05;101920.06;;;17.74;64.27
53960;BME280;39866;48.638;-2.020;2022-07-03T03:05:03;101927.53;;;17.66;64.13
53960;BME280;39866;48.638;-2.020;2022-07-03T03:10:14;101930.53;;;17.58;64.30
53960;BME280;39866;48.638;-2.020;2022-07-03T03:12:46;101926.97;;;17.58;64.75
53960;BME280;39866;48.638;-2.020;2022-07-03T03:15:12;101923.41;;;17.57;64.62
53960;BME280;39866;48.638;-2.020;2022-07-03T03:17:47;101929.78;;;17.55;64.88
53960;BME280;39866;48.638;-2.020;2022-07-03T03:20:15;101929.78;;;17.55;64.77
53960;BME280;39866;48.638;-2.020;2022-07-03T03:25:31;101930.09;;;17.47;64.85
53960;BME280;39866;48.638;-2.020;2022-07-03T03:27:58;101921.13;;;17.47;64.83
53960;BME280;39866;48.638;-2.020;2022-07-03T03:30:24;101922.94;;;17.46;65.31
53960;BME280;39866;48.638;-2.020;2022-07-03T03:32:49;101929.06;;;17.50;65.24
53960;BME280;39866;48.638;-2.020;2022-07-03T03:35:15;101930.97;;;17.48;65.14
53960;BME280;39866;48.638;-2.020;2022-07-03T03:37:41;101935.50;;;17.46;65.14
53960;BME280;39866;48.638;-2.020;2022-07-03T03:40:07;101935.59;;;17.44;65.30
53960;BME280;39866;48.638;-2.020;2022-07-03T03:42:32;101938.22;;;17.46;65.77
53960;BME280;39866;48.638;-2.020;2022-07-03T03:44:58;101935.34;;;17.50;65.92
53960;BME280;39866;48.638;-2.020;2022-07-03T03:47:24;101937.13;;;17.51;65.11
53960;BME280;39866;48.638;-2.020;2022-07-03T03:49:49;101931.19;;;17.42;64.85
53960;BME280;39866;48.638;-2.020;2022-07-03T03:52:15;101941.25;;;17.37;64.88
53960;BME280;39866;48.638;-2.020;2022-07-03T03:54:41;101945.06;;;17.31;65.18
53960;BME280;39866;48.638;-2.020;2022-07-03T03:57:20;101936.53;;;17.20;64.86
53960;BME280;39866;48.638;-2.020;2022-07-03T03:59:46;101932.06;;;17.19;65.13
53960;BME280;39866;48.638;-2.020;2022-07-03T04:02:11;101939.50;;;17.12;64.99
53960;BME280;39866;48.638;-2.020;2022-07-03T04:04:37;101940.75;;;17.02;65.02
53960;BME280;39866;48.638;-2.020;2022-07-03T04:07:03;101939.16;;;16.96;65.24
53960;BME280;39866;48.638;-2.020;2022-07-03T04:09:28;101940.16;;;16.94;65.60
53960;BME280;39866;48.638;-2.020;2022-07-03T04:11:54;101940.13;;;16.95;65.63
53960;BME280;39866;48.638;-2.020;2022-07-03T04:14:19;101940.03;;;16.97;65.46
53960;BME280;39866;48.638;-2.020;2022-07-03T04:16:44;101936.56;;;16.95;65.26
53960;BME280;39866;48.638;-2.020;2022-07-03T04:19:10;101934.75;;;16.94;65.64
53960;BME280;39866;48.638;-2.020;2022-07-03T04:21:35;101937.34;;;16.97;65.76
53960;BME280;39866;48.638;-2.020;2022-07-03T04:24:01;101945.22;;;17.03;66.02
53960;BME280;39866;48.638;-2.020;2022-07-03T04:26:26;101943.22;;;17.08;65.66
53960;BME280;39866;48.638;-2.020;2022-07-03T04:28:51;101940.47;;;17.09;65.40
53960;BME280;39866;48.638;-2.020;2022-07-03T04:31:17;101941.41;;;17.08;65.33
53960;BME280;39866;48.638;-2.020;2022-07-03T04:33:42;101941.34;;;17.10;65.41
53960;BME280;39866;48.638;-2.020;2022-07-03T04:36:07;101944.81;;;17.14;65.84
53960;BME280;39866;48.638;-2.020;2022-07-03T04:38:33;101949.13;;;17.18;65.52
53960;BME280;39866;48.638;-2.020;2022-07-03T04:40:58;101948.22;;;17.19;64.96
53960;BME280;39866;48.638;-2.020;2022-07-03T04:43:24;101948.06;;;17.23;65.25
53960;BME280;39866;48.638;-2.020;2022-07-03T04:45:49;101947.00;;;17.27;65.00
53960;BME280;39866;48.638;-2.020;2022-07-03T04:48:15;101952.59;;;17.21;64.82
53960;BME280;39866;48.638;-2.020;2022-07-03T04:50:40;101958.09;;;17.18;64.94
53960;BME280;39866;48.638;-2.020;2022-07-03T04:53:05;101956.31;;;17.19;64.86
53960;BME280;39866;48.638;-2.020;2022-07-03T04:55:31;101951.81;;;17.18;64.87
53960;BME280;39866;48.638;-2.020;2022-07-03T04:57:56;101952.69;;;17.18;65.34
53960;BME280;39866;48.638;-2.020;2022-07-03T05:00:21;101952.41;;;17.26;66.05
53960;BME280;39866;48.638;-2.020;2022-07-03T05:02:47;101952.41;;;17.26;65.12
53960;BME280;39866;48.638;-2.020;2022-07-03T05:05:12;101957.94;;;17.23;64.74
53960;BME280;39866;48.638;-2.020;2022-07-03T05:07:37;101958.84;;;17.22;64.73
53960;BME280;39866;48.638;-2.020;2022-07-03T05:10:03;101964.31;;;17.20;65.34
53960;BME280;39866;48.638;-2.020;2022-07-03T05:12:28;101941.94;;;17.18;65.44
53960;BME280;39866;48.638;-2.020;2022-07-03T05:14:54;101960.31;;;17.30;64.77
53960;BME280;39866;48.638;-2.020;2022-07-03T05:17:19;101963.09;;;17.29;65.18
53960;BME280;39866;48.638;-2.020;2022-07-03T05:19:45;101955.06;;;17.27;64.85
53960;BME280;39866;48.638;-2.020;2022-07-03T05:22:10;101959.44;;;17.30;64.89
53960;BME280;39866;48.638;-2.020;2022-07-03T05:24:35;101963.94;;;17.29;65.04
53960;BME280;39866;48.638;-2.020;2022-07-03T05:27:01;101954.94;;;17.30;65.33
53960;BME280;39866;48.638;-2.020;2022-07-03T05:29:26;101966.81;;;17.25;65.07
53960;BME280;39866;48.638;-2.020;2022-07-03T05:31:52;101966.22;;;17.17;65.33
53960;BME280;39866;48.638;-2.020;2022-07-03T05:34:17;101965.28;;;17.18;65.64
53960;BME280;39866;48.638;-2.020;2022-07-03T05:36:43;101960.75;;;17.20;65.57
53960;BME280;39866;48.638;-2.020;2022-07-03T05:39:08;101971.34;;;17.24;65.77
53960;BME280;39866;48.638;-2.020;2022-07-03T05:42:06;101965.06;;;17.24;66.17
53960;BME280;39866;48.638;-2.020;2022-07-03T05:44:31;101969.44;;;17.26;65.73
53960;BME280;39866;48.638;-2.020;2022-07-03T05:46:56;101967.69;;;17.25;66.19
53960;BME280;39866;48.638;-2.020;2022-07-03T05:49:22;101972.13;;;17.26;66.20
53960;BME280;39866;48.638;-2.020;2022-07-03T05:51:47;101967.53;;;17.53;65.81
53960;BME280;39866;48.638;-2.020;2022-07-03T05:54:13;101967.53;;;17.30;66.12
53960;BME280;39866;48.638;-2.020;2022-07-03T05:56:38;101976.59;;;17.27;66.31
53960;BME280;39866;48.638;-2.020;2022-07-03T05:59:03;101970.19;;;17.31;66.52
53960;BME280;39866;48.638;-2.020;2022-07-03T06:01:29;101979.75;;;17.39;66.26
53960;BME280;39866;48.638;-2.020;2022-07-03T06:03:54;101971.63;;;17.40;66.65
53960;BME280;39866;48.638;-2.020;2022-07-03T06:06:19;101976.97;;;17.42;66.96
53960;BME280;39866;48.638;-2.020;2022-07-03T06:08:45;101974.09;;;17.46;66.61
53960;BME280;39866;48.638;-2.020;2022-07-03T06:11:10;101963.84;;;17.32;67.69
53960;BME280;39866;48.638;-2.020;2022-07-03T06:13:35;101972.34;;;17.45;67.96
53960;BME280;39866;48.638;-2.020;2022-07-03T06:16:01;101965.91;;;17.49;68.22
53960;BME280;39866;48.638;-2.020;2022-07-03T06:18:26;101967.47;;;17.55;67.78
53960;BME280;39866;48.638;-2.020;2022-07-03T06:20:51;101967.25;;;17.61;68.34
53960;BME280;39866;48.638;-2.020;2022-07-03T06:23:17;101972.63;;;17.61;68.02
53960;BME280;39866;48.638;-2.020;2022-07-03T06:25:42;101984.09;;;17.66;67.57
53960;BME280;39866;48.638;-2.020;2022-07-03T06:28:08;101974.19;;;17.67;67.35
53960;BME280;39866;48.638;-2.020;2022-07-03T06:30:33;101962.44;;;17.69;67.09
53960;BME280;39866;48.638;-2.020;2022-07-03T06:32:58;101960.56;;;17.71;66.92
53960;BME280;39866;48.638;-2.020;2022-07-03T06:35:24;101965.75;;;17.77;66.76
53960;BME280;39866;48.638;-2.020;2022-07-03T06:37:49;101971.91;;;17.81;66.28
53960;BME280;39866;48.638;-2.020;2022-07-03T06:40:14;101974.50;;;17.82;66.53
53960;BME280;39866;48.638;-2.020;2022-07-03T06:42:40;101971.72;;;17.86;66.13
53960;BME280;39866;48.638;-2.020;2022-07-03T06:45:05;101971.72;;;17.86;66.91
53960;BME280;39866;48.638;-2.020;2022-07-03T06:47:36;101971.72;;;17.86;66.31
53960;BME280;39866;48.638;-2.020;2022-07-03T06:50:02;101981.53;;;17.87;66.07
53960;BME280;39866;48.638;-2.020;2022-07-03T06:52:27;101985.81;;;17.92;66.21
53960;BME280;39866;48.638;-2.020;2022-07-03T06:54:52;101989.31;;;17.94;65.46
53960;BME280;39866;48.638;-2.020;2022-07-03T06:57:18;101993.84;;;17.94;64.93
53960;BME280;39866;48.638;-2.020;2022-07-03T06:59:43;101993.94;;;17.91;65.02
53960;BME280;39866;48.638;-2.020;2022-07-03T07:02:09;101996.91;;;17.85;65.45
53960;BME280;39866;48.638;-2.020;2022-07-03T07:04:34;102003.84;;;17.90;65.52
53960;BME280;39866;48.638;-2.020;2022-07-03T07:06:59;102004.81;;;17.89;64.84
53960;BME280;39866;48.638;-2.020;2022-07-03T07:09:25;101999.16;;;17.95;65.38
53960;BME280;39866;48.638;-2.020;2022-07-03T07:11:50;102007.19;;;17.97;65.37
53960;BME280;39866;48.638;-2.020;2022-07-03T07:14:16;102007.81;;;18.03;65.83
53960;BME280;39866;48.638;-2.020;2022-07-03T07:16:41;102007.13;;;17.98;65.42
53960;BME280;39866;48.638;-2.020;2022-07-03T07:19:06;102007.81;;;18.03;65.29
53960;BME280;39866;48.638;-2.020;2022-07-03T07:21:32;102009.72;;;18.01;65.70
53960;BME280;39866;48.638;-2.020;2022-07-03T07:23:57;102013.00;;;18.08;65.64
53960;BME280;39866;48.638;-2.020;2022-07-03T07:26:22;102009.25;;;18.12;66.01
53960;BME280;39866;48.638;-2.020;2022-07-03T07:28:48;102008.38;;;18.12;65.99
53960;BME280;39866;48.638;-2.020;2022-07-03T07:31:13;102011.03;;;18.13;65.58
53960;BME280;39866;48.638;-2.020;2022-07-03T07:33:38;102007.50;;;18.11;65.23
53960;BME280;39866;48.638;-2.020;2022-07-03T07:36:04;102007.63;;;18.08;65.42
53960;BME280;39866;48.638;-2.020;2022-07-03T07:38:29;102006.25;;;18.20;65.29
53960;BME280;39866;48.638;-2.020;2022-07-03T07:40:55;102013.47;;;18.19;65.39
53960;BME280;39866;48.638;-2.020;2022-07-03T07:43:20;102010.53;;;18.25;65.17
53960;BME280;39866;48.638;-2.020;2022-07-03T07:45:45;101999.88;;;18.22;64.99
53960;BME280;39866;48.638;-2.020;2022-07-03T07:48:11;102013.25;;;18.25;65.13
53960;BME280;39866;48.638;-2.020;2022-07-03T07:50:36;102006.81;;;18.28;64.41
53960;BME280;39866;48.638;-2.020;2022-07-03T07:53:02;102004.84;;;18.33;63.69
53960;BME280;39866;48.638;-2.020;2022-07-03T07:55:28;102004.78;;;18.35;63.31
53960;BME280;39866;48.638;-2.020;2022-07-03T07:57:53;102006.28;;;18.42;63.62
53960;BME280;39866;48.638;-2.020;2022-07-03T08:00:19;102007.72;;;18.50;63.06
53960;BME280;39866;48.638;-2.020;2022-07-03T08:02:46;102007.72;;;18.50;62.63
53960;BME280;39866;48.638;-2.020;2022-07-03T08:05:30;102010.41;;;18.50;62.58
53960;BME280;39866;48.638;-2.020;2022-07-03T08:10:27;102011.75;;;18.61;62.75
53960;BME280;39866;48.638;-2.020;2022-07-03T08:12:52;102025.19;;;18.62;62.61
53960;BME280;39866;48.638;-2.020;2022-07-03T08:15:18;102028.56;;;18.67;64.10
53960;BME280;39866;48.638;-2.020;2022-07-03T08:17:43;102027.41;;;18.74;63.84
53960;BME280;39866;48.638;-2.020;2022-07-03T08:20:09;102022.69;;;18.79;63.52
53960;BME280;39866;48.638;-2.020;2022-07-03T08:22:34;102028.75;;;18.85;63.10
53960;BME280;39866;48.638;-2.020;2022-07-03T08:24:59;102028.63;;;18.88;62.07
53960;BME280;39866;48.638;-2.020;2022-07-03T08:27:25;102022.50;;;18.84;62.21
53960;BME280;39866;48.638;-2.020;2022-07-03T08:29:50;102027.69;;;18.89;61.70
53960;BME280;39866;48.638;-2.020;2022-07-03T08:32:16;102040.50;;;18.84;61.82
53960;BME280;39866;48.638;-2.020;2022-07-03T08:34:41;102029.09;;;18.77;62.51
53960;BME280;39866;48.638;-2.020;2022-07-03T08:37:06;102032.50;;;18.82;62.31
53960;BME280;39866;48.638;-2.020;2022-07-03T08:39:32;102031.75;;;18.78;61.52
53960;BME280;39866;48.638;-2.020;2022-07-03T08:41:58;102036.44;;;18.73;62.01
53960;BME280;39866;48.638;-2.020;2022-07-03T08:44:24;102026.59;;;18.72;62.35
53960;BME280;39866;48.638;-2.020;2022-07-03T08:46:50;102026.69;;;18.69;62.63
53960;BME280;39866;48.638;-2.020;2022-07-03T08:49:16;102024.94;;;18.68;63.44
53960;BME280;39866;48.638;-2.020;2022-07-03T08:51:43;102024.75;;;18.73;62.95
53960;BME280;39866;48.638;-2.020;2022-07-03T08:54:10;102022.69;;;18.79;62.85
53960;BME280;39866;48.638;-2.020;2022-07-03T08:56:35;102027.97;;;18.83;63.48
53960;BME280;39866;48.638;-2.020;2022-07-03T08:59:03;102033.97;;;18.89;63.73
53960;BME280;39866;48.638;-2.020;2022-07-03T09:01:28;102026.63;;;18.93;64.46
53960;BME280;39866;48.638;-2.020;2022-07-03T09:03:54;102029.06;;;18.99;64.33
53960;BME280;39866;48.638;-2.020;2022-07-03T09:06:21;102029.72;;;19.04;64.22
53960;BME280;39866;48.638;-2.020;2022-07-03T09:08:47;102032.44;;;19.04;64.06
53960;BME280;39866;48.638;-2.020;2022-07-03T09:11:13;102030.41;;;19.09;64.45
53960;BME280;39866;48.638;-2.020;2022-07-03T09:13:38;102024.75;;;19.15;64.11
53960;BME280;39866;48.638;-2.020;2022-07-03T09:16:03;102031.75;;;19.19;63.43
53960;BME280;39866;48.638;-2.020;2022-07-03T09:18:40;102040.06;;;19.15;62.96
53960;BME280;39866;48.638;-2.020;2022-07-03T09:21:06;102037.41;;;19.13;61.99
53960;BME280;39866;48.638;-2.020;2022-07-03T09:23:42;102033.72;;;19.16;62.79
53960;BME280;39866;48.638;-2.020;2022-07-03T09:26:18;102037.53;;;19.10;62.26
53960;BME280;39866;48.638;-2.020;2022-07-03T09:28:52;102035.59;;;19.14;62.21
53960;BME280;39866;48.638;-2.020;2022-07-03T09:31:19;102035.66;;;19.12;61.96
53960;BME280;39866;48.638;-2.020;2022-07-03T09:34:05;102031.16;;;19.13;61.05
53960;BME280;39866;48.638;-2.020;2022-07-03T09:36:48;102032.31;;;19.07;61.55
53960;BME280;39866;48.638;-2.020;2022-07-03T09:39:17;102036.81;;;19.07;61.69
53960;BME280;39866;48.638;-2.020;2022-07-03T09:42:09;102040.66;;;20.00;58.72
53960;BME280;39866;48.638;-2.020;2022-07-03T09:44:43;102036.22;;;19.20;59.00
53960;BME280;39866;48.638;-2.020;2022-07-03T09:47:23;102042.94;;;19.10;60.62
53960;BME280;39866;48.638;-2.020;2022-07-03T09:50:00;102037.00;;;19.43;59.39
53960;BME280;39866;48.638;-2.020;2022-07-03T09:52:38;102045.44;;;19.55;58.99
53960;BME280;39866;48.638;-2.020;2022-07-03T09:57:36;102060.09;;;20.08;58.02
53960;BME280;39866;48.638;-2.020;2022-07-03T10:05:16;102064.63;;;20.08;56.92
53960;BME280;39866;48.638;-2.020;2022-07-03T10:07:51;102064.50;;;20.11;58.10
53960;BME280;39866;48.638;-2.020;2022-07-03T10:10:19;102069.63;;;20.17;57.91
53960;BME280;39866;48.638;-2.020;2022-07-03T10:12:46;102071.31;;;19.41;59.97
53960;BME280;39866;48.638;-2.020;2022-07-03T10:15:12;102071.56;;;19.35;59.50
53960;BME280;39866;48.638;-2.020;2022-07-03T10:17:40;102080.75;;;19.71;58.79
53960;BME280;39866;48.638;-2.020;2022-07-03T10:20:06;102076.44;;;19.26;59.62
53960;BME280;39866;48.638;-2.020;2022-07-03T10:22:35;102082.34;;;19.14;58.82
53960;BME280;39866;48.638;-2.020;2022-07-03T10:25:01;102072.38;;;19.16;59.40
53960;BME280;39866;48.638;-2.020;2022-07-03T10:27:28;102074.97;;;19.19;60.35
53960;BME280;39866;48.638;-2.020;2022-07-03T10:29:54;102082.22;;;19.17;59.62
53960;BME280;39866;48.638;-2.020;2022-07-03T10:32:20;102085.69;;;19.21;59.46
53960;BME280;39866;48.638;-2.020;2022-07-03T10:34:46;102081.16;;;19.21;59.41
53960;BME280;39866;48.638;-2.020;2022-07-03T10:37:14;102078.78;;;19.14;60.35
53960;BME280;39866;48.638;-2.020;2022-07-03T10:42:28;102082.22;;;19.17;60.59
53960;BME280;39866;48.638;-2.020;2022-07-03T10:45:14;102086.75;;;19.17;60.91
53960;BME280;39866;48.638;-2.020;2022-07-03T10:47:44;102084.94;;;19.17;60.33
53960;BME280;39866;48.638;-2.020;2022-07-03T10:50:20;102082.31;;;19.16;59.35
53960;BME280;39866;48.638;-2.020;2022-07-03T10:52:47;102086.88;;;19.14;59.79
53960;BME280;39866;48.638;-2.020;2022-07-03T10:55:14;102080.47;;;19.16;60.86
53960;BME280;39866;48.638;-2.020;2022-07-03T10:57:41;102092.78;;;19.23;59.62
53960;BME280;39866;48.638;-2.020;2022-07-03T11:00:08;102089.00;;;19.27;60.43
53960;BME280;39866;48.638;-2.020;2022-07-03T11:02:44;102090.88;;;19.25;60.28
53960;BME280;39866;48.638;-2.020;2022-07-03T11:15:33;102096.28;;;19.25;62.93
53960;BME280;39866;48.638;-2.020;2022-07-03T11:20:34;102098.47;;;20.16;60.94
53960;BME280;39866;48.638;-2.020;2022-07-03T11:25:41;102096.72;;;20.53;59.53
53960;BME280;39866;48.638;-2.020;2022-07-03T11:28:07;102102.16;;;20.53;57.07
53960;BME280;39866;48.638;-2.020;2022-07-03T11:30:33;102113.13;;;20.50;57.24
53960;BME280;39866;48.638;-2.020;2022-07-03T11:32:59;102110.63;;;20.45;57.15
53960;BME280;39866;48.638;-2.020;2022-07-03T11:35:49;102108.97;;;20.62;57.82
53960;BME280;39866;48.638;-2.020;2022-07-03T11:38:28;102102.34;;;20.67;57.47
53960;BME280;39866;48.638;-2.020;2022-07-03T11:40:55;102107.31;;;20.76;56.14
53960;BME280;39866;48.638;-2.020;2022-07-03T11:43:21;102105.56;;;20.75;56.81
53960;BME280;39866;48.638;-2.020;2022-07-03T11:45:47;102108.84;;;20.82;55.59
53960;BME280;39866;48.638;-2.020;2022-07-03T11:48:15;102112.25;;;20.86;56.04
53960;BME280;39866;48.638;-2.020;2022-07-03T11:50:43;102117.03;;;20.81;56.92
53960;BME280;39866;48.638;-2.020;2022-07-03T11:53:35;102122.44;;;20.81;57.97
53960;BME280;39866;48.638;-2.020;2022-07-03T11:56:06;102121.06;;;20.72;58.74
53960;BME280;39866;48.638;-2.020;2022-07-03T12:01:11;102119.47;;;21.04;57.58
53960;BME280;39866;48.638;-2.020;2022-07-03T12:03:53;102117.16;;;21.14;55.71
53960;BME280;39866;48.638;-2.020;2022-07-03T12:06:19;102122.03;;;21.24;56.37
53960;BME280;39866;48.638;-2.020;2022-07-03T12:08:45;102125.38;;;21.30;56.84
53960;BME280;39866;48.638;-2.020;2022-07-03T12:11:15;102125.75;;;21.22;56.16
53960;BME280;39866;48.638;-2.020;2022-07-03T12:13:42;102119.88;;;21.31;56.34
53960;BME280;39866;48.638;-2.020;2022-07-03T12:16:08;102115.19;;;21.35;55.72
53960;BME280;39866;48.638;-2.020;2022-07-03T12:18:53;102124.75;;;21.42;55.81
53960;BME280;39866;48.638;-2.020;2022-07-03T12:21:20;102121.06;;;21.25;56.77
53960;BME280;39866;48.638;-2.020;2022-07-03T12:23:47;102120.34;;;21.05;56.13
53960;BME280;39866;48.638;-2.020;2022-07-03T12:26:14;102120.09;;;21.09;55.87
53960;BME280;39866;48.638;-2.020;2022-07-03T12:28:40;102124.53;;;21.10;55.44
53960;BME280;39866;48.638;-2.020;2022-07-03T12:31:06;102098.09;;;20.98;56.04
53960;BME280;39866;48.638;-2.020;2022-07-03T12:33:32;102119.22;;;21.09;56.78
53960;BME280;39866;48.638;-2.020;2022-07-03T12:36:08;102118.34;;;21.25;56.93
53960;BME280;39866;48.638;-2.020;2022-07-03T12:38:36;102111.44;;;21.20;56.33
53960;BME280;39866;48.638;-2.020;2022-07-03T12:41:09;102117.88;;;21.17;56.65
53960;BME280;39866;48.638;-2.020;2022-07-03T12:43:42;102115.50;;;21.11;56.48
53960;BME280;39866;48.638;-2.020;2022-07-03T12:46:32;102117.47;;;21.25;55.53
53960;BME280;39866;48.638;-2.020;2022-07-03T12:49:10;102109.13;;;21.30;56.35
53960;BME280;39866;48.638;-2.020;2022-07-03T12:51:44;102115.28;;;21.33;56.13
53960;BME280;39866;48.638;-2.020;2022-07-03T12:54:13;102114.53;;;21.30;55.90
53960;BME280;39866;48.638;-2.020;2022-07-03T12:56:39;102111.75;;;21.31;55.28
53960;BME280;39866;48.638;-2.020;2022-07-03T12:59:05;102106.19;;;21.34;55.04
53960;BME280;39866;48.638;-2.020;2022-07-03T13:01:44;102118.06;;;21.49;55.52
53960;BME280;39866;48.638;-2.020;2022-07-03T13:04:10;102114.25;;;21.53;55.33
53960;BME280;39866;48.638;-2.020;2022-07-03T13:06:41;102119.66;;;21.53;55.07
53960;BME280;39866;48.638;-2.020;2022-07-03T13:09:07;102107.59;;;21.59;54.90
53960;BME280;39866;48.638;-2.020;2022-07-03T13:11:38;102119.09;;;21.46;54.62
53960;BME280;39866;48.638;-2.020;2022-07-03T13:16:39;102121.41;;;21.54;54.62
53960;BME280;39866;48.638;-2.020;2022-07-03T13:19:06;102119.88;;;21.66;53.58
53960;BME280;39866;48.638;-2.020;2022-07-03T13:21:31;102116.84;;;21.55;53.42
53960;BME280;39866;48.638;-2.020;2022-07-03T13:23:57;102134.91;;;21.56;54.12
53960;BME280;39866;48.638;-2.020;2022-07-03T13:26:22;102123.34;;;21.52;54.62
53960;BME280;39866;48.638;-2.020;2022-07-03T13:28:48;102118.66;;;21.71;55.06
53960;BME280;39866;48.638;-2.020;2022-07-03T13:31:13;102117.59;;;21.91;54.26
53960;BME280;39866;48.638;-2.020;2022-07-03T13:33:39;102118.69;;;22.05;54.43
53960;BME280;39866;48.638;-2.020;2022-07-03T13:36:04;102114.63;;;22.13;54.91
53960;BME280;39866;48.638;-2.020;2022-07-03T13:38:29;102124.09;;;22.38;53.33
53960;BME280;39866;48.638;-2.020;2022-07-03T13:40:55;102120.25;;;22.42;52.58
53960;BME280;39866;48.638;-2.020;2022-07-03T13:43:20;102125.31;;;22.64;51.78
53960;BME280;39866;48.638;-2.020;2022-07-03T13:45:46;102120.66;;;22.82;51.41
53960;BME280;39866;48.638;-2.020;2022-07-03T13:48:11;102124.56;;;23.23;49.93
53960;BME280;39866;48.638;-2.020;2022-07-03T13:50:37;102125.16;;;23.43;49.28
53960;BME280;39866;48.638;-2.020;2022-07-03T13:53:02;102137.59;;;23.91;48.07
53960;BME280;39866;48.638;-2.020;2022-07-03T13:55:28;102127.88;;;24.30;46.76
53960;BME280;39866;48.638;-2.020;2022-07-03T13:57:54;102126.69;;;24.63;45.77